Time;durP1;ratioP1;P1;durP2;ratioP2;P2;SDS_P1;SDS_P2;PMS_P1;PMS_P2;Temp;Humidity;BMP_temperature;BMP_pressure;BME280_temperature;BME280_humidity;BME280_pressure;Samples;Min_cycle;Max_cycle;Signal;HPM_P1;HPM_P2
2023/12/26 00:00:39;;;;;;;16.23;8.40;;;;;;;;;;5130370;27;20069;-77
2023/12/26 00:03:06;;;;;;;15.25;7.53;;;;;;;;;;5130901;27;20097;-72
2023/12/26 00:05:33;;;;;;;11.85;7.10;;;;;;;;;;5130461;27;20039;-77
2023/12/26 00:08:02;;;;;;;11.75;6.45;;;;;;;;;;5130574;27;20131;-76
2023/12/26 00:10:30;;;;;;;12.10;7.30;;;;;;;;;;5129800;27;20498;-76
2023/12/26 00:12:57;;;;;;;11.43;7.45;;;;;;;;;;5130562;27;20142;-79
2023/12/26 00:15:24;;;;;;;12.68;7.25;;;;;;;;;;5130252;27;20065;-74
2023/12/26 00:17:50;;;;;;;13.73;7.25;;;;;;;;;;5130559;27;20521;-75
2023/12/26 00:20:17;;;;;;;13.32;7.05;;;;;;;;;;5130295;27;20449;-75
2023/12/26 00:22:44;;;;;;;13.38;7.97;;;;;;;;;;5130580;27;20062;-73
2023/12/26 00:25:11;;;;;;;12.30;6.82;;;;;;;;;;5129829;27;20051;-74
2023/12/26 00:27:39;;;;;;;12.27;6.75;;;;;;;;;;5130462;27;20043;-78
2023/12/26 00:30:08;;;;;;;12.20;6.88;;;;;;;;;;5130309;27;20163;-80
2023/12/26 00:32:35;;;;;;;13.02;6.93;;;;;;;;;;5130435;27;20148;-76
2023/12/26 00:35:02;;;;;;;12.48;7.00;;;;;;;;;;5130381;27;20061;-76
2023/12/26 00:37:29;;;;;;;12.75;7.22;;;;;;;;;;5130601;27;20047;-78
2023/12/26 00:39:56;;;;;;;14.25;7.30;;;;;;;;;;5129987;28;20050;-70
2023/12/26 00:42:22;;;;;;;11.52;6.05;;;;;;;;;;5130017;28;20043;-81
2023/12/26 00:44:49;;;;;;;13.68;7.20;;;;;;;;;;5130376;28;20073;-75
2023/12/26 00:47:16;;;;;;;11.65;6.68;;;;;;;;;;5129923;28;20510;-76
2023/12/26 00:49:42;;;;;;;10.77;6.57;;;;;;;;;;5130107;28;20040;-71
2023/12/26 00:52:09;;;;;;;11.93;6.72;;;;;;;;;;5129950;28;20039;-77
2023/12/26 00:54:36;;;;;;;13.32;7.10;;;;;;;;;;5129795;28;20509;-73
2023/12/26 00:57:03;;;;;;;14.27;6.80;;;;;;;;;;5130103;27;20047;-82
2023/12/26 00:59:29;;;;;;;11.40;6.03;;;;;;;;;;5134189;27;20050;-71
2023/12/26 01:02:01;;;;;;;10.80;5.70;;;;;;;;;;5133953;27;20045;-77
2023/12/26 01:04:28;;;;;;;10.70;6.00;;;;;;;;;;5134162;27;20051;-74
2023/12/26 01:06:55;;;;;;;11.32;6.00;;;;;;;;;;5133961;27;20092;-78
2023/12/26 01:09:22;;;;;;;11.27;6.22;;;;;;;;;;5134154;27;20047;-76
2023/12/26 01:11:49;;;;;;;11.90;6.38;;;;;;;;;;5133683;27;20051;-72
2023/12/26 01:14:16;;;;;;;10.73;6.20;;;;;;;;;;5133959;27;20148;-71
2023/12/26 01:16:45;;;;;;;13.93;6.90;;;;;;;;;;5133573;27;20495;-70
2023/12/26 01:19:16;;;;;;;14.00;7.07;;;;;;;;;;5133816;27;20479;-78
2023/12/26 01:21:43;;;;;;;12.07;6.40;;;;;;;;;;5133311;27;20501;-69
2023/12/26 01:24:09;;;;;;;11.70;6.78;;;;;;;;;;5133703;27;20046;-79
2023/12/26 01:26:36;;;;;;;12.40;6.18;;;;;;;;;;5133671;27;20532;-73
2023/12/26 01:29:04;;;;;;;11.77;6.28;;;;;;;;;;5133692;27;20074;-77
2023/12/26 01:31:35;;;;;;;11.27;6.10;;;;;;;;;;5133384;27;20526;-73
2023/12/26 01:34:05;;;;;;;;;;;;;;;;;;5133935;27;20047;-71
2023/12/26 01:36:32;;;;;;;12.40;6.10;;;;;;;;;;5133148;27;19919;-73
2023/12/26 01:39:03;;;;;;;11.60;5.80;;;;;;;;;;5133265;27;20598;-76
2023/12/26 01:41:30;;;;;;;11.00;5.70;;;;;;;;;;5133218;27;20047;-73
2023/12/26 01:43:57;;;;;;;10.68;5.50;;;;;;;;;;5133513;27;20054;-76
2023/12/26 01:46:24;;;;;;;10.95;6.32;;;;;;;;;;5133130;27;20047;-73
2023/12/26 01:48:53;;;;;;;10.60;5.65;;;;;;;;;;5133557;27;20050;-74
2023/12/26 01:51:24;;;;;;;10.48;5.75;;;;;;;;;;5132757;27;20063;-79
2023/12/26 01:53:51;;;;;;;10.80;5.32;;;;;;;;;;5133163;27;20047;-81
2023/12/26 01:56:18;;;;;;;9.02;5.20;;;;;;;;;;5132957;27;20056;-78
2023/12/26 01:58:48;;;;;;;10.10;5.30;;;;;;;;;;5133023;27;20051;-77
2023/12/26 02:01:16;;;;;;;9.50;5.55;;;;;;;;;;5132934;27;20103;-79
2023/12/26 02:03:43;;;;;;;9.77;5.47;;;;;;;;;;5133292;27;20563;-79
2023/12/26 02:06:11;;;;;;;11.45;5.22;;;;;;;;;;5132839;27;20055;-71
2023/12/26 02:08:39;;;;;;;10.45;6.18;;;;;;;;;;5132954;27;20071;-75
2023/12/26 02:11:06;;;;;;;10.68;5.78;;;;;;;;;;5131865;27;20043;-81
2023/12/26 02:13:34;;;;;;;11.55;5.20;;;;;;;;;;5132763;27;20123;-70
2023/12/26 02:16:06;;;;;;;9.75;5.45;;;;;;;;;;5132660;27;20066;-76
2023/12/26 02:18:34;;;;;;;10.40;5.65;;;;;;;;;;5132839;27;20039;-79
2023/12/26 02:21:01;;;;;;;10.80;5.93;;;;;;;;;;5132865;27;20050;-81
2023/12/26 02:23:29;;;;;;;11.82;5.93;;;;;;;;;;5132729;27;20130;-70
2023/12/26 02:25:57;;;;;;;11.65;6.40;;;;;;;;;;5132304;27;20047;-73
2023/12/26 02:28:25;;;;;;;12.00;6.20;;;;;;;;;;5132429;27;20122;-76
2023/12/26 02:30:52;;;;;;;11.45;5.68;;;;;;;;;;5132280;27;20477;-76
2023/12/26 02:33:19;;;;;;;11.13;5.68;;;;;;;;;;5114034;27;20054;-77
2023/12/26 02:35:46;;;;;;;11.77;6.55;;;;;;;;;;5132665;27;20053;-72
2023/12/26 02:38:13;;;;;;;11.20;5.72;;;;;;;;;;5132051;27;20047;-80
2023/12/26 02:40:40;;;;;;;14.20;6.38;;;;;;;;;;5132187;27;20100;-69
2023/12/26 02:43:09;;;;;;;10.80;5.60;;;;;;;;;;5132122;27;20054;-69
2023/12/26 02:45:36;;;;;;;11.55;5.43;;;;;;;;;;5132141;27;20050;-71
2023/12/26 02:48:05;;;;;;;10.15;5.22;;;;;;;;;;5132154;27;20047;-76
2023/12/26 02:50:31;;;;;;;12.05;5.15;;;;;;;;;;5131951;27;20048;-78
2023/12/26 02:52:58;;;;;;;10.80;5.15;;;;;;;;;;5131684;27;20054;-75
2023/12/26 02:55:25;;;;;;;10.23;5.05;;;;;;;;;;5131847;27;20058;-72
2023/12/26 02:57:51;;;;;;;9.57;4.65;;;;;;;;;;5131791;27;20524;-78
2023/12/26 03:00:18;;;;;;;8.77;4.13;;;;;;;;;;5131950;27;20054;-71
2023/12/26 03:02:45;;;;;;;8.45;4.25;;;;;;;;;;5131817;27;20051;-74
2023/12/26 03:05:12;;;;;;;9.40;4.25;;;;;;;;;;5131624;27;20047;-77
2023/12/26 03:07:39;;;;;;;10.00;4.78;;;;;;;;;;5131408;27;20039;-77
2023/12/26 03:10:09;;;;;;;9.02;4.60;;;;;;;;;;5131835;27;20043;-81
2023/12/26 03:12:36;;;;;;;7.20;4.22;;;;;;;;;;5131365;27;20516;-77
2023/12/26 03:15:03;;;;;;;8.48;4.43;;;;;;;;;;5131578;27;20515;-75
2023/12/26 03:17:30;;;;;;;8.93;4.55;;;;;;;;;;5131381;27;20081;-80
2023/12/26 03:19:57;;;;;;;7.07;4.13;;;;;;;;;;5131438;27;20172;-76
2023/12/26 03:22:23;;;;;;;7.90;3.75;;;;;;;;;;5133706;27;20132;-81
2023/12/26 03:24:50;;;;;;;8.93;4.55;;;;;;;;;;5130927;27;20561;-72
2023/12/26 03:27:17;;;;;;;7.70;3.88;;;;;;;;;;5131595;27;20051;-77
2023/12/26 03:29:43;;;;;;;8.60;4.55;;;;;;;;;;5131596;27;20077;-74
2023/12/26 03:32:10;;;;;;;9.88;5.13;;;;;;;;;;5131351;27;20047;-79
2023/12/26 03:34:37;;;;;;;8.57;4.50;;;;;;;;;;5131374;27;20046;-80
2023/12/26 03:37:04;;;;;;;10.15;4.55;;;;;;;;;;5131338;27;20043;-73
2023/12/26 03:39:32;;;;;;;7.88;4.22;;;;;;;;;;5130568;27;20043;-75
2023/12/26 03:41:59;;;;;;;8.85;4.40;;;;;;;;;;5130867;27;20527;-72
2023/12/26 03:44:26;;;;;;;7.30;3.90;;;;;;;;;;5130789;27;20055;-73
2023/12/26 03:46:52;;;;;;;8.88;3.88;;;;;;;;;;5130933;27;20118;-80
2023/12/26 03:49:19;;;;;;;7.13;3.92;;;;;;;;;;5112499;27;20051;-78
2023/12/26 03:51:47;;;;;;;7.15;3.85;;;;;;;;;;5131154;27;20092;-73
2023/12/26 03:54:14;;;;;;;7.60;3.92;;;;;;;;;;5130875;27;20043;-75
2023/12/26 03:56:41;;;;;;;9.20;4.05;;;;;;;;;;5130939;27;20047;-75
2023/12/26 03:59:08;;;;;;;10.82;4.78;;;;;;;;;;5130788;27;20126;-74
2023/12/26 04:01:35;;;;;;;10.05;4.53;;;;;;;;;;5130673;27;20516;-77
2023/12/26 04:04:02;;;;;;;9.85;5.03;;;;;;;;;;5130620;27;20043;-69
2023/12/26 04:06:29;;;;;;;8.77;4.32;;;;;;;;;;5130580;27;20083;-73
2023/12/26 04:08:56;;;;;;;7.72;4.18;;;;;;;;;;5130023;27;20054;-79
2023/12/26 04:11:23;;;;;;;10.93;4.40;;;;;;;;;;5130704;27;20049;-71
2023/12/26 04:13:49;;;;;;;11.70;4.18;;;;;;;;;;5130195;27;20108;-78
2023/12/26 04:16:16;;;;;;;8.55;4.07;;;;;;;;;;5131518;27;20499;-78
2023/12/26 04:18:43;;;;;;;8.60;4.07;;;;;;;;;;5130088;27;20044;-73
2023/12/26 04:21:10;;;;;;;9.52;4.30;;;;;;;;;;5130824;27;20051;-76
2023/12/26 04:23:37;;;;;;;10.88;4.35;;;;;;;;;;5129845;27;20079;-74
2023/12/26 04:26:05;;;;;;;8.32;3.92;;;;;;;;;;5112316;28;20085;-76
2023/12/26 04:28:31;;;;;;;8.10;3.83;;;;;;;;;;5130578;27;20054;-77
2023/12/26 04:30:58;;;;;;;13.52;5.45;;;;;;;;;;5130495;27;20047;-74
2023/12/26 04:33:25;;;;;;;10.88;4.18;;;;;;;;;;5129422;27;20043;-73
2023/12/26 04:35:52;;;;;;;14.40;4.93;;;;;;;;;;5129945;27;20047;-80
2023/12/26 04:38:19;;;;;;;9.70;3.97;;;;;;;;;;5130306;27;20104;-78
2023/12/26 04:40:45;;;;;;;11.02;4.03;;;;;;;;;;5130071;28;20050;-71
2023/12/26 04:43:12;;;;;;;9.05;4.15;;;;;;;;;;5129975;28;20126;-80
2023/12/26 04:45:39;;;;;;;9.15;4.28;;;;;;;;;;5130513;28;20054;-82
2023/12/26 04:48:07;;;;;;;8.35;3.60;;;;;;;;;;5130194;28;20043;-81
2023/12/26 04:50:35;;;;;;;9.10;4.25;;;;;;;;;;5130237;28;20039;-72
2023/12/26 04:53:04;;;;;;;8.63;4.20;;;;;;;;;;5130056;28;20050;-71
2023/12/26 04:55:32;;;;;;;10.43;4.10;;;;;;;;;;5129670;28;20415;-71
2023/12/26 04:57:58;;;;;;;8.68;3.95;;;;;;;;;;5130441;28;20065;-76
2023/12/26 05:00:25;;;;;;;6.90;4.03;;;;;;;;;;5130135;28;20043;-73
2023/12/26 05:02:52;;;;;;;11.50;4.03;;;;;;;;;;5129832;28;20526;-74
2023/12/26 05:05:19;;;;;;;9.88;4.78;;;;;;;;;;5129689;28;20047;-82
2023/12/26 05:07:46;;;;;;;9.80;4.55;;;;;;;;;;5130089;28;20039;-80
2023/12/26 05:10:13;;;;;;;9.93;4.15;;;;;;;;;;5130075;28;20039;-78
2023/12/26 05:12:39;;;;;;;7.32;3.65;;;;;;;;;;5129804;27;20073;-75
2023/12/26 05:15:06;;;;;;;7.68;3.80;;;;;;;;;;5129938;28;20043;-75
2023/12/26 05:17:33;;;;;;;7.72;3.55;;;;;;;;;;5129922;28;20051;-72
2023/12/26 05:20:01;;;;;;;7.43;3.85;;;;;;;;;;5129785;28;20047;-75
2023/12/26 05:22:47;;;;;;;10.27;4.20;;;;;;;;;;5129710;28;20047;-75
2023/12/26 05:25:14;;;;;;;7.40;3.65;;;;;;;;;;5129104;28;20055;-75
2023/12/26 05:27:40;;;;;;;8.32;3.85;;;;;;;;;;5129559;28;20047;-75
2023/12/26 05:30:08;;;;;;;6.13;3.17;;;;;;;;;;5129833;28;20039;-70
2023/12/26 05:32:35;;;;;;;5.38;3.28;;;;;;;;;;5129859;28;20078;-80
2023/12/26 05:35:04;;;;;;;5.07;2.80;;;;;;;;;;5129309;27;20131;-74
2023/12/26 05:37:30;;;;;;;5.53;3.03;;;;;;;;;;5129781;28;20047;-81
2023/12/26 05:39:57;;;;;;;6.38;3.33;;;;;;;;;;5129399;28;20046;-74
2023/12/26 05:42:24;;;;;;;6.75;3.45;;;;;;;;;;5129495;28;20039;-78
2023/12/26 05:44:51;;;;;;;5.95;3.15;;;;;;;;;;5130452;27;20050;-78
2023/12/26 05:47:19;;;;;;;5.10;3.17;;;;;;;;;;5133239;27;20499;-73
2023/12/26 05:49:46;;;;;;;5.45;3.22;;;;;;;;;;5133095;27;20043;-77
2023/12/26 05:52:13;;;;;;;6.20;3.00;;;;;;;;;;5133414;27;20100;-75
2023/12/26 05:54:40;;;;;;;5.65;3.10;;;;;;;;;;5132747;27;20039;-78
2023/12/26 05:57:06;;;;;;;4.97;2.60;;;;;;;;;;5133188;27;20640;-74
2023/12/26 05:59:34;;;;;;;4.05;2.50;;;;;;;;;;5133096;27;20074;-69
2023/12/26 06:02:00;;;;;;;5.40;2.80;;;;;;;;;;5133176;27;20096;-72
2023/12/26 06:04:27;;;;;;;4.47;2.88;;;;;;;;;;5132767;27;20051;-76
2023/12/26 06:06:54;;;;;;;4.60;2.80;;;;;;;;;;5132692;27;20078;-79
2023/12/26 06:09:21;;;;;;;3.95;2.50;;;;;;;;;;5132849;27;20047;-77
2023/12/26 06:11:47;;;;;;;5.07;2.60;;;;;;;;;;5114596;27;20053;-70
2023/12/26 06:14:14;;;;;;;4.80;2.80;;;;;;;;;;5132823;27;20043;-70
2023/12/26 06:16:41;;;;;;;4.65;2.83;;;;;;;;;;5132658;27;20051;-77
2023/12/26 06:19:07;;;;;;;5.05;2.70;;;;;;;;;;5132866;27;20046;-70
2023/12/26 06:21:35;;;;;;;6.18;2.40;;;;;;;;;;5132497;27;20039;-70
2023/12/26 06:24:03;;;;;;;4.03;2.45;;;;;;;;;;5132127;27;20063;-72
2023/12/26 06:26:29;;;;;;;4.47;2.65;;;;;;;;;;5132415;27;20090;-72
2023/12/26 06:28:56;;;;;;;2.90;1.92;;;;;;;;;;5132866;27;20101;-70
2023/12/26 06:31:23;;;;;;;3.80;2.35;;;;;;;;;;5132615;27;20039;-76
2023/12/26 06:33:50;;;;;;;3.50;2.30;;;;;;;;;;5132154;27;20047;-69
2023/12/26 06:36:17;;;;;;;4.57;2.30;;;;;;;;;;5113927;27;20043;-78
2023/12/26 06:38:44;;;;;;;5.97;2.97;;;;;;;;;;5132405;27;20109;-75
2023/12/26 06:41:10;;;;;;;4.00;2.20;;;;;;;;;;5132204;27;20486;-74
2023/12/26 06:43:37;;;;;;;4.78;2.70;;;;;;;;;;5132314;27;20043;-76
2023/12/26 06:46:04;;;;;;;4.43;2.30;;;;;;;;;;5132418;27;20051;-70
2023/12/26 06:48:30;;;;;;;3.80;2.38;;;;;;;;;;5132455;27;20046;-74
2023/12/26 06:50:57;;;;;;;5.15;2.97;;;;;;;;;;5132127;27;20074;-75
2023/12/26 06:53:24;;;;;;;4.10;2.63;;;;;;;;;;5132067;27;20136;-75
2023/12/26 06:55:53;;;;;;;3.85;2.20;;;;;;;;;;5131840;27;20043;-77
2023/12/26 06:58:20;;;;;;;5.88;2.70;;;;;;;;;;5131903;27;20039;-75
2023/12/26 07:00:49;;;;;;;4.80;2.60;;;;;;;;;;5131989;27;20043;-78
2023/12/26 07:03:17;;;;;;;3.60;2.20;;;;;;;;;;5132058;27;20043;-71
2023/12/26 07:05:44;;;;;;;3.75;2.50;;;;;;;;;;5131644;27;20130;-70
2023/12/26 07:08:11;;;;;;;5.03;2.97;;;;;;;;;;5131847;27;20074;-70
2023/12/26 07:10:37;;;;;;;4.00;2.67;;;;;;;;;;5131625;27;20054;-71
2023/12/26 07:13:04;;;;;;;4.10;2.15;;;;;;;;;;5131740;27;20058;-80
2023/12/26 07:15:31;;;;;;;4.00;2.38;;;;;;;;;;5131132;27;20581;-72
2023/12/26 07:17:57;;;;;;;4.45;2.80;;;;;;;;;;5131582;27;20613;-72
2023/12/26 07:20:25;;;;;;;6.13;3.50;;;;;;;;;;5113345;27;20054;-73
2023/12/26 07:22:52;;;;;;;6.28;3.70;;;;;;;;;;5131626;27;20043;-80
2023/12/26 07:25:19;;;;;;;7.05;3.80;;;;;;;;;;5130683;27;20055;-79
2023/12/26 07:27:46;;;;;;;7.60;4.00;;;;;;;;;;5131409;27;20482;-75
2023/12/26 07:30:13;;;;;;;9.85;4.30;;;;;;;;;;5130961;27;20043;-77
2023/12/26 07:32:39;;;;;;;7.90;4.28;;;;;;;;;;5131204;27;20043;-71
2023/12/26 07:35:06;;;;;;;9.10;4.35;;;;;;;;;;5131043;27;20058;-74
2023/12/26 07:37:33;;;;;;;6.90;4.13;;;;;;;;;;5131257;27;20047;-74
2023/12/26 07:40:00;;;;;;;7.40;3.85;;;;;;;;;;5131144;27;20051;-71
2023/12/26 07:42:26;;;;;;;7.13;4.00;;;;;;;;;;5131475;27;20047;-73
2023/12/26 07:44:53;;;;;;;7.32;3.47;;;;;;;;;;5130961;27;20054;-70
2023/12/26 07:47:20;;;;;;;6.90;3.45;;;;;;;;;;5130757;27;20126;-69
2023/12/26 07:49:47;;;;;;;5.68;3.22;;;;;;;;;;5112592;27;20553;-71
2023/12/26 07:52:14;;;;;;;5.68;3.50;;;;;;;;;;5130998;27;20155;-75
2023/12/26 07:54:41;;;;;;;7.53;3.67;;;;;;;;;;5131013;27;20047;-72
2023/12/26 07:57:08;;;;;;;7.60;3.90;;;;;;;;;;5131065;27;20051;-69
2023/12/26 07:59:35;;;;;;;5.85;3.20;;;;;;;;;;5131151;27;20047;-72
2023/12/26 08:02:02;;;;;;;6.97;3.78;;;;;;;;;;5130745;27;20051;-76
2023/12/26 08:04:28;;;;;;;7.53;4.00;;;;;;;;;;5130722;27;20047;-74
2023/12/26 08:06:55;;;;;;;9.50;4.45;;;;;;;;;;5129890;27;20225;-75
2023/12/26 08:09:22;;;;;;;8.52;4.32;;;;;;;;;;5131838;27;20051;-81
2023/12/26 08:11:48;;;;;;;6.55;3.58;;;;;;;;;;5131120;27;20079;-79
2023/12/26 08:14:17;;;;;;;7.85;4.05;;;;;;;;;;5130472;27;20072;-72
2023/12/26 08:16:45;;;;;;;7.45;3.80;;;;;;;;;;5125108;27;20511;-72
2023/12/26 08:19:12;;;;;;;8.05;4.43;;;;;;;;;;5118961;27;20054;-78
2023/12/26 08:21:39;;;;;;;9.32;4.78;;;;;;;;;;5121316;27;20043;-70
2023/12/26 08:24:07;;;;;;;8.45;4.50;;;;;;;;;;5130378;27;20107;-69
2023/12/26 08:26:34;;;;;;;9.05;4.88;;;;;;;;;;5111999;28;20638;-69
2023/12/26 08:29:00;;;;;;;8.85;4.72;;;;;;;;;;5090601;28;20490;-68
2023/12/26 08:31:27;;;;;;;7.68;4.13;;;;;;;;;;5109224;28;20047;-70
2023/12/26 08:33:54;;;;;;;8.65;4.95;;;;;;;;;;5109586;28;20047;-74
2023/12/26 08:36:21;;;;;;;8.90;4.70;;;;;;;;;;5108951;28;20043;-73
2023/12/26 08:38:47;;;;;;;6.55;4.07;;;;;;;;;;5109601;28;20043;-75
2023/12/26 08:41:14;;;;;;;9.25;4.65;;;;;;;;;;5109658;28;20047;-72
2023/12/26 08:43:41;;;;;;;8.48;4.78;;;;;;;;;;5109728;28;20537;-74
2023/12/26 08:46:08;;;;;;;9.90;5.10;;;;;;;;;;5109300;28;20502;-73
2023/12/26 08:48:34;;;;;;;8.38;4.32;;;;;;;;;;5109710;28;20613;-75
2023/12/26 08:51:01;;;;;;;10.77;5.03;;;;;;;;;;5091640;28;20094;-73
2023/12/26 08:53:28;;;;;;;8.85;4.85;;;;;;;;;;5109648;28;20047;-76
2023/12/26 08:55:55;;;;;;;9.85;4.85;;;;;;;;;;5109446;28;20052;-72
2023/12/26 08:58:22;;;;;;;8.32;4.10;;;;;;;;;;5109466;28;20139;-79
2023/12/26 09:00:48;;;;;;;7.35;4.15;;;;;;;;;;5109748;28;20149;-75
2023/12/26 09:03:15;;;;;;;8.20;4.20;;;;;;;;;;5109372;28;20492;-72
2023/12/26 09:05:42;;;;;;;9.45;5.00;;;;;;;;;;5109070;28;20044;-74
2023/12/26 09:08:09;;;;;;;8.00;4.47;;;;;;;;;;5109416;28;20051;-75
2023/12/26 09:10:36;;;;;;;6.45;3.88;;;;;;;;;;5116249;28;20039;-75
2023/12/26 09:13:02;;;;;;;9.23;4.97;;;;;;;;;;5130041;28;20070;-81
2023/12/26 09:15:29;;;;;;;7.28;4.03;;;;;;;;;;5131267;28;20044;-74
2023/12/26 09:17:56;;;;;;;6.78;3.38;;;;;;;;;;5139848;28;20104;-76
2023/12/26 09:20:23;;;;;;;8.48;4.43;;;;;;;;;;5143320;27;20058;-72
2023/12/26 09:22:50;;;;;;;8.57;3.95;;;;;;;;;;5139175;27;20043;-72
2023/12/26 09:25:17;;;;;;;7.70;4.40;;;;;;;;;;5144798;27;20055;-75
2023/12/26 09:27:44;;;;;;;8.82;4.13;;;;;;;;;;5145415;27;20043;-72
2023/12/26 09:30:11;;;;;;;7.97;4.72;;;;;;;;;;5145370;27;20043;-73
2023/12/26 09:32:38;;;;;;;9.30;5.07;;;;;;;;;;5144219;27;20055;-76
2023/12/26 09:35:05;;;;;;;7.05;4.32;;;;;;;;;;5142015;27;20110;-73
2023/12/26 09:37:38;;;;;;;7.75;4.50;;;;;;;;;;5141045;27;20043;-75
2023/12/26 09:40:10;;;;;;;7.68;4.25;;;;;;;;;;5138803;27;20481;-72
2023/12/26 09:42:37;;;;;;;8.00;4.60;;;;;;;;;;5136786;27;20043;-76
2023/12/26 09:45:06;;;;;;;7.70;4.05;;;;;;;;;;5139629;27;20043;-71
2023/12/26 09:47:36;;;;;;;8.70;4.80;;;;;;;;;;5140361;27;20055;-74
2023/12/26 09:50:03;;;;;;;9.55;4.68;;;;;;;;;;5136563;27;20054;-74
2023/12/26 09:52:35;;;;;;;6.28;3.78;;;;;;;;;;5127782;27;20043;-74
2023/12/26 09:55:02;;;;;;;6.35;3.45;;;;;;;;;;5124473;27;20048;-77
2023/12/26 09:57:29;;;;;;;6.18;3.72;;;;;;;;;;5141447;27;20039;-75
2023/12/26 09:59:57;;;;;;;5.72;3.67;;;;;;;;;;5129806;27;20096;-74
2023/12/26 10:02:24;;;;;;;6.63;4.25;;;;;;;;;;5116935;28;20104;-72
2023/12/26 10:04:51;;;;;;;7.45;4.03;;;;;;;;;;5119427;28;20476;-79
2023/12/26 10:07:18;;;;;;;7.15;3.85;;;;;;;;;;5113405;27;20039;-81
2023/12/26 10:09:45;;;;;;;6.43;4.13;;;;;;;;;;5121796;27;20053;-72
2023/12/26 10:12:12;;;;;;;6.72;4.15;;;;;;;;;;5131292;27;20511;-68
2023/12/26 10:14:39;;;;;;;8.75;4.68;;;;;;;;;;5130961;27;20043;-68
2023/12/26 10:17:06;;;;;;;6.80;4.43;;;;;;;;;;5116320;27;20418;-69
2023/12/26 10:19:33;;;;;;;7.30;4.32;;;;;;;;;;5112971;28;20096;-72
2023/12/26 10:22:02;;;;;;;7.75;4.22;;;;;;;;;;5110849;28;20055;-73
2023/12/26 10:24:29;;;;;;;7.50;4.40;;;;;;;;;;5122447;27;20311;-71
2023/12/26 10:26:56;;;;;;;8.70;4.45;;;;;;;;;;5137384;27;20083;-71
2023/12/26 10:29:22;;;;;;;7.93;4.53;;;;;;;;;;5136762;27;20118;-76
2023/12/26 10:31:49;;;;;;;8.82;4.50;;;;;;;;;;5138094;27;20044;-71
2023/12/26 10:34:19;;;;;;;7.72;3.83;;;;;;;;;;5132389;27;20053;-71
2023/12/26 10:36:49;;;;;;;7.13;4.60;;;;;;;;;;5133966;27;20055;-71
2023/12/26 10:39:16;;;;;;;8.65;4.63;;;;;;;;;;5132392;27;20043;-71
2023/12/26 10:41:45;;;;;;;7.50;4.15;;;;;;;;;;5135259;27;20047;-71
2023/12/26 10:44:15;;;;;;;8.05;4.65;;;;;;;;;;5132167;27;20514;-71
2023/12/26 10:46:42;;;;;;;8.20;4.43;;;;;;;;;;5134456;27;20073;-71
2023/12/26 10:49:23;;;;;;;7.53;4.30;;;;;;;;;;5133306;27;20039;-71
2023/12/26 10:51:52;;;;;;;8.68;4.13;;;;;;;;;;5133641;27;20065;-71
2023/12/26 10:54:23;;;;;;;8.35;4.57;;;;;;;;;;5132162;27;20047;-71
2023/12/26 10:56:51;;;;;;;7.03;4.03;;;;;;;;;;5118828;27;20047;-73
2023/12/26 13:52:41;;;;;;;7.80;4.38;;;;;;;;;;5133566;27;20065;-70
2023/12/26 13:55:46;;;;;;;7.97;4.68;;;;;;;;;;5144217;27;20109;-71
2023/12/26 13:58:50;;;;;;;8.02;4.45;;;;;;;;;;5133072;27;20047;-74
2023/12/26 14:01:54;;;;;;;9.52;4.88;;;;;;;;;;5135819;27;20047;-73
2023/12/26 14:04:59;;;;;;;6.93;4.13;;;;;;;;;;5134734;27;20054;-72
2023/12/26 14:07:26;;;;;;;6.57;3.42;;;;;;;;;;5133712;27;20054;-72
2023/12/26 14:09:53;;;;;;;6.07;3.47;;;;;;;;;;5132893;27;20047;-72
2023/12/26 14:12:20;;;;;;;6.35;3.42;;;;;;;;;;5132903;27;20399;-72
2023/12/26 14:14:49;;;;;;;7.95;3.70;;;;;;;;;;5133035;27;20105;-72
2023/12/26 14:17:18;;;;;;;6.67;3.57;;;;;;;;;;5132728;27;20040;-72
2023/12/26 14:19:45;;;;;;;7.55;3.45;;;;;;;;;;5132181;27;20043;-72
2023/12/26 14:22:14;;;;;;;6.50;3.78;;;;;;;;;;5132895;27;20039;-72
2023/12/26 14:24:41;;;;;;;9.68;4.55;;;;;;;;;;5132151;27;20165;-72
2023/12/26 14:27:08;;;;;;;6.30;3.55;;;;;;;;;;5132906;27;20074;-73
2023/12/26 14:29:35;;;;;;;7.60;3.90;;;;;;;;;;5132885;27;20043;-72
2023/12/26 14:32:02;;;;;;;9.50;4.25;;;;;;;;;;5133000;27;20047;-72
2023/12/26 14:34:29;;;;;;;7.13;3.80;;;;;;;;;;5132825;27;20047;-72
2023/12/26 14:36:56;;;;;;;6.80;3.65;;;;;;;;;;5132456;27;20043;-72
2023/12/26 14:39:23;;;;;;;4.90;2.95;;;;;;;;;;5132391;27;20043;-72
2023/12/26 14:41:49;;;;;;;7.60;3.83;;;;;;;;;;5132518;27;20043;-72
2023/12/26 14:44:16;;;;;;;6.70;3.83;;;;;;;;;;5132647;27;20043;-72
2023/12/26 14:46:43;;;;;;;8.73;4.05;;;;;;;;;;5132196;27;20049;-72
2023/12/26 14:49:09;;;;;;;7.72;3.92;;;;;;;;;;5132169;27;20039;-73
2023/12/26 14:51:36;;;;;;;8.05;3.85;;;;;;;;;;5132566;27;20088;-72
2023/12/26 14:54:03;;;;;;;7.03;3.90;;;;;;;;;;5132072;27;20123;-72
2023/12/26 14:56:30;;;;;;;9.48;4.30;;;;;;;;;;5132040;27;20095;-72
2023/12/26 14:58:59;;;;;;;7.30;3.85;;;;;;;;;;5132113;27;20051;-72
2023/12/26 15:01:26;;;;;;;7.03;3.83;;;;;;;;;;5132086;27;20043;-72
2023/12/26 15:03:53;;;;;;;7.20;3.92;;;;;;;;;;5132107;27;20047;-72
2023/12/26 15:06:21;;;;;;;6.65;3.75;;;;;;;;;;5131827;27;20051;-72
2023/12/26 15:08:47;;;;;;;7.70;3.80;;;;;;;;;;5131610;27;20423;-72
2023/12/26 15:11:15;;;;;;;5.70;3.20;;;;;;;;;;5131728;27;20043;-72
2023/12/26 15:13:42;;;;;;;5.72;3.17;;;;;;;;;;5131808;27;20046;-73
2023/12/26 15:16:19;;;;;;;6.10;3.08;;;;;;;;;;5131339;27;20403;-72
2023/12/26 15:18:46;;;;;;;5.97;3.13;;;;;;;;;;5131427;27;20579;-72
2023/12/26 15:21:13;;;;;;;5.25;3.28;;;;;;;;;;5131520;27;20057;-72
2023/12/26 15:23:40;;;;;;;6.88;3.60;;;;;;;;;;5131411;27;20677;-73
2023/12/26 15:26:14;;;;;;;6.38;3.22;;;;;;;;;;5131658;27;20073;-72
2023/12/26 15:28:42;;;;;;;5.78;3.42;;;;;;;;;;5131328;27;20078;-72
2023/12/26 15:31:19;;;;;;;4.60;2.97;;;;;;;;;;5112864;27;20047;-72
2023/12/26 15:33:48;;;;;;;8.55;3.22;;;;;;;;;;5131555;27;20308;-72
2023/12/26 15:36:19;;;;;;;6.90;3.80;;;;;;;;;;5131310;27;20471;-73
2023/12/26 15:38:48;;;;;;;7.38;3.42;;;;;;;;;;5131511;27;20079;-72
2023/12/26 15:41:17;;;;;;;5.43;3.42;;;;;;;;;;5131459;27;20047;-72
2023/12/26 15:43:44;;;;;;;6.88;3.70;;;;;;;;;;5131086;27;20078;-72
2023/12/26 15:46:24;;;;;;;7.03;3.63;;;;;;;;;;5130818;27;20050;-72
2023/12/26 15:48:52;;;;;;;8.03;4.10;;;;;;;;;;5131260;27;20118;-72
2023/12/26 15:51:22;;;;;;;7.03;3.55;;;;;;;;;;5130975;27;20284;-72
2023/12/26 15:53:50;;;;;;;6.23;3.57;;;;;;;;;;5131995;27;20043;-73
2023/12/26 15:56:23;;;;;;;7.20;3.55;;;;;;;;;;5131432;27;20053;-72
2023/12/26 15:58:50;;;;;;;6.47;3.85;;;;;;;;;;5131126;27;20086;-72
2023/12/26 16:01:20;;;;;;;6.00;3.17;;;;;;;;;;5131207;27;20047;-72
2023/12/26 16:03:53;;;;;;;7.05;3.65;;;;;;;;;;5130981;27;20506;-72
2023/12/26 16:06:23;;;;;;;7.95;4.03;;;;;;;;;;5130520;27;20489;-72
2023/12/26 16:08:50;;;;;;;10.23;4.22;;;;;;;;;;5130053;27;20047;-72
2023/12/26 16:11:17;;;;;;;6.22;3.50;;;;;;;;;;5130498;27;20122;-72
2023/12/26 16:13:44;;;;;;;7.28;3.75;;;;;;;;;;5130757;27;20522;-72
2023/12/26 16:16:12;;;;;;;7.32;4.25;;;;;;;;;;5130914;27;20043;-72
2023/12/26 16:18:40;;;;;;;7.80;4.40;;;;;;;;;;5130462;27;20083;-73
2023/12/26 16:21:08;;;;;;;7.65;4.43;;;;;;;;;;5130751;27;20144;-72
2023/12/26 16:23:35;;;;;;;7.57;4.03;;;;;;;;;;5130653;27;20263;-72
2023/12/26 16:26:04;;;;;;;8.13;4.00;;;;;;;;;;5130325;27;20434;-72
2023/12/26 16:28:35;;;;;;;9.18;4.28;;;;;;;;;;5129656;27;20051;-72
2023/12/26 16:31:03;;;;;;;7.63;4.10;;;;;;;;;;5130525;27;20134;-72
2023/12/26 16:33:31;;;;;;;7.47;3.83;;;;;;;;;;5130376;27;20050;-72
2023/12/26 16:35:58;;;;;;;8.65;4.25;;;;;;;;;;5130403;27;20077;-72
2023/12/26 16:38:25;;;;;;;6.18;3.47;;;;;;;;;;5130098;27;20047;-72
2023/12/26 16:40:52;;;;;;;8.35;4.18;;;;;;;;;;5130360;27;20044;-72
2023/12/26 16:43:19;;;;;;;9.18;4.32;;;;;;;;;;5130047;28;20047;-72
2023/12/26 16:45:45;;;;;;;6.80;3.53;;;;;;;;;;5130320;28;20050;-72
2023/12/26 16:48:12;;;;;;;7.88;3.78;;;;;;;;;;5130087;28;20078;-72
2023/12/26 16:50:39;;;;;;;8.48;4.22;;;;;;;;;;5130486;28;20044;-72
2023/12/26 16:53:06;;;;;;;7.43;4.28;;;;;;;;;;5130430;28;20040;-72
2023/12/26 16:55:33;;;;;;;9.70;5.00;;;;;;;;;;5130485;28;20047;-72
2023/12/26 16:57:59;;;;;;;8.68;4.30;;;;;;;;;;5129949;28;20442;-72
2023/12/26 17:00:29;;;;;;;8.88;4.68;;;;;;;;;;5130214;28;20047;-72
2023/12/26 17:02:59;;;;;;;9.38;4.93;;;;;;;;;;5130013;28;20076;-72
2023/12/26 17:05:26;;;;;;;9.03;4.63;;;;;;;;;;5129932;28;20051;-72
2023/12/26 17:07:54;;;;;;;10.00;5.25;;;;;;;;;;5111271;28;20435;-72
2023/12/26 17:10:21;;;;;;;10.18;5.10;;;;;;;;;;5129824;28;20392;-72
2023/12/26 17:12:47;;;;;;;12.15;5.70;;;;;;;;;;5130061;28;20047;-73
2023/12/26 17:15:14;;;;;;;9.50;5.05;;;;;;;;;;5130335;28;20050;-73
2023/12/26 17:17:41;;;;;;;9.25;4.93;;;;;;;;;;5130011;28;20153;-72
2023/12/26 17:20:08;;;;;;;8.30;4.88;;;;;;;;;;5130054;28;20086;-72
2023/12/26 17:22:35;;;;;;;11.88;5.82;;;;;;;;;;5129889;28;20051;-72
2023/12/26 17:25:01;;;;;;;13.32;7.05;;;;;;;;;;5129765;28;20054;-72
2023/12/26 17:27:28;;;;;;;13.73;5.95;;;;;;;;;;5119483;27;20044;-72
2023/12/26 17:29:55;;;;;;;13.20;6.88;;;;;;;;;;5116705;28;20499;-72
2023/12/26 17:32:22;;;;;;;12.23;6.32;;;;;;;;;;5133671;28;20196;-73
2023/12/26 17:34:49;;;;;;;9.23;5.10;;;;;;;;;;5130023;28;20533;-72
2023/12/26 17:37:15;;;;;;;13.10;6.00;;;;;;;;;;5129790;28;20074;-72